Time;durP1;ratioP1;P1;durP2;ratioP2;P2;SDS_P1;SDS_P2;PMS_P1;PMS_P2;Temp;Humidity;BMP_temperature;BMP_pressure;BME280_temperature;BME280_humidity;BME280_pressure;Samples;Min_cycle;Max_cycle;Signal;HPM_P1;HPM_P2
2021/08/20 00:00:27;;;;;;;39.13;17.15;;;15.10;99.90;;;;;;6189959;23;20356;-89
2021/08/20 00:02:53;;;;;;;35.20;16.42;;;15.00;99.90;;;;;;6215888;23;20092;-89
2021/08/20 00:05:20;;;;;;;38.05;17.02;;;15.00;99.90;;;;;;6165230;23;20091;-89
2021/08/20 00:07:46;;;;;;;40.40;17.85;;;15.00;99.90;;;;;;6189666;23;20498;-88
2021/08/20 00:10:12;;;;;;;45.97;19.25;;;15.00;99.90;;;;;;6163076;23;20016;-88
2021/08/20 00:12:38;;;;;;;41.90;18.55;;;15.00;99.90;;;;;;6213894;23;20061;-88
2021/08/20 00:15:05;;;;;;;43.78;19.33;;;15.00;99.90;;;;;;6163411;23;20016;-88
2021/08/20 00:17:31;;;;;;;41.22;19.10;;;15.00;99.90;;;;;;6187060;23;20016;-89
2021/08/20 00:19:57;;;;;;;42.05;19.10;;;15.00;99.90;;;;;;6189674;23;20022;-89
2021/08/20 00:22:23;;;;;;;37.72;18.08;;;15.00;99.90;;;;;;6134997;23;20020;-88
2021/08/20 00:24:49;;;;;;;40.95;19.83;;;15.00;99.90;;;;;;6141344;23;20019;-90
2021/08/20 00:27:15;;;;;;;48.35;19.42;;;15.00;99.90;;;;;;6190253;23;20012;-88
2021/08/20 00:29:41;;;;;;;45.38;19.38;;;15.00;99.90;;;;;;6215669;23;20091;-88
2021/08/20 00:32:07;;;;;;;38.45;18.23;;;14.90;99.90;;;;;;6191021;23;20004;-88
2021/08/20 00:34:34;;;;;;;40.97;19.52;;;14.90;99.90;;;;;;6165352;23;20451;-88
2021/08/20 00:37:01;;;;;;;46.08;20.10;;;14.90;99.90;;;;;;6166515;23;20013;-88
2021/08/20 00:39:27;;;;;;;49.40;21.35;;;14.90;99.90;;;;;;6141059;23;20341;-88
2021/08/20 00:41:53;;;;;;;51.45;22.27;;;14.90;99.90;;;;;;6165426;23;20008;-88
2021/08/20 00:44:21;;;;;;;43.33;21.17;;;14.90;99.90;;;;;;6165732;23;20337;-88
2021/08/20 00:46:47;;;;;;;47.00;22.33;;;14.90;99.90;;;;;;6215818;23;20016;-89
2021/08/20 00:49:14;;;;;;;52.95;22.63;;;14.90;99.90;;;;;;6190704;23;20340;-89
2021/08/20 00:51:40;;;;;;;52.55;22.50;;;14.90;99.90;;;;;;6214548;23;20004;-88
2021/08/20 00:54:09;;;;;;;53.88;23.08;;;14.90;99.90;;;;;;6164032;23;20012;-89
2021/08/20 00:56:37;;;;;;;54.03;24.00;;;14.90;99.90;;;;;;6214106;23;20378;-88
2021/08/20 00:59:03;;;;;;;53.83;24.40;;;14.80;99.90;;;;;;6189799;23;20464;-88
2021/08/20 01:01:30;;;;;;;57.88;23.98;;;14.90;99.90;;;;;;6164389;23;20414;-88
2021/08/20 01:03:56;;;;;;;61.53;26.30;;;14.80;99.90;;;;;;6165183;23;20179;-90
2021/08/20 01:06:29;;;;;;;65.25;27.23;;;14.80;99.90;;;;;;6189860;23;20016;-89
2021/08/20 01:08:56;;;;;;;59.42;26.77;;;14.80;99.90;;;;;;6213586;23;20260;-89
2021/08/20 01:11:24;;;;;;;75.30;28.80;;;14.80;99.90;;;;;;6163931;23;20083;-87
2021/08/20 01:13:49;;;;;;;64.35;27.67;;;14.80;99.90;;;;;;6189103;23;20268;-87
2021/08/20 01:16:15;;;;;;;73.47;30.40;;;14.80;99.90;;;;;;6188690;23;20322;-87
2021/08/20 01:18:42;;;;;;;72.03;29.67;;;14.80;99.90;;;;;;6189516;23;20059;-89
2021/08/20 01:21:20;;;;;;;78.45;32.17;;;14.80;99.90;;;;;;6164236;23;20046;-88
2021/08/20 01:23:49;;;;;;;73.57;32.00;;;14.80;99.90;;;;;;6221799;23;20027;-87
2021/08/20 01:26:16;;;;;;;75.40;32.78;;;14.80;99.90;;;;;;6190432;23;20087;-87
2021/08/20 01:28:42;;;;;;;86.97;34.03;;;14.80;99.90;;;;;;6165379;23;20012;-88
2021/08/20 01:31:10;;;;;;;77.97;34.05;;;14.80;99.90;;;;;;6165879;23;20008;-87
2021/08/20 01:33:40;;;;;;;77.53;34.40;;;14.80;99.90;;;;;;6189563;23;20008;-89
2021/08/20 01:36:08;;;;;;;78.75;33.92;;;14.80;99.90;;;;;;6165285;23;20016;-88
2021/08/20 01:38:47;;;;;;;84.38;34.72;;;14.80;99.90;;;;;;6165597;23;20099;-86
2021/08/20 01:41:13;;;;;;;104.13;38.28;;;14.70;99.90;;;;;;6215117;23;20313;-88
2021/08/20 01:43:39;;;;;;;92.53;37.13;;;14.70;99.90;;;;;;6189928;23;20691;-88
2021/08/20 01:46:05;;;;;;;94.25;38.90;;;14.80;99.90;;;;;;6164620;23;20012;-87
2021/08/20 01:48:34;;;;;;;105.43;38.75;;;14.70;99.90;;;;;;6141280;23;20012;-88
2021/08/20 01:51:00;;;;;;;91.72;38.53;;;14.70;99.90;;;;;;6165714;23;20441;-89
2021/08/20 01:53:26;;;;;;;95.80;39.28;;;14.70;99.90;;;;;;6165531;23;20068;-88
2021/08/20 01:55:51;;;;;;;89.88;38.75;;;14.70;99.90;;;;;;6189045;23;20038;-87
2021/08/20 01:58:17;;;;;;;90.57;38.10;;;14.70;99.90;;;;;;6189963;23;20012;-88
2021/08/20 02:00:43;;;;;;;92.88;38.70;;;14.70;99.90;;;;;;6140239;23;20095;-87
2021/08/20 02:03:10;;;;;;;104.45;41.70;;;14.70;99.90;;;;;;6167464;23;20391;-88
2021/08/20 02:05:36;;;;;;;93.25;39.92;;;14.60;99.90;;;;;;6212699;23;20031;-87
2021/08/20 02:08:03;;;;;;;111.03;41.45;;;14.60;99.90;;;;;;6195230;23;20051;-88
2021/08/20 02:10:29;;;;;;;109.57;42.35;;;14.60;99.90;;;;;;6189615;23;20012;-87
2021/08/20 02:12:54;;;;;;;102.93;41.30;;;14.60;99.90;;;;;;6165143;23;20020;-88
2021/08/20 02:15:20;;;;;;;110.93;42.17;;;14.60;99.90;;;;;;6164134;23;20016;-88
2021/08/20 02:17:46;;;;;;;105.40;42.35;;;14.60;99.90;;;;;;6163331;23;20027;-88
2021/08/20 02:20:12;;;;;;;102.22;41.97;;;14.60;99.90;;;;;;6164819;23;20019;-87
2021/08/20 02:22:38;;;;;;;110.63;43.55;;;14.60;99.90;;;;;;6164786;23;20008;-88
2021/08/20 02:25:04;;;;;;;114.10;43.08;;;14.60;99.90;;;;;;6140435;23;20023;-88
2021/08/20 02:27:30;;;;;;;129.20;45.75;;;14.60;99.90;;;;;;6214770;23;20012;-87
2021/08/20 02:29:57;;;;;;;117.32;45.70;;;14.60;99.90;;;;;;6214126;23;20019;-87
2021/08/20 02:32:22;;;;;;;118.10;45.35;;;14.60;99.90;;;;;;6214061;23;20028;-88
2021/08/20 02:34:48;;;;;;;122.90;47.13;;;14.60;99.90;;;;;;6188413;23;20479;-87
2021/08/20 02:37:14;;;;;;;107.40;44.60;;;14.60;99.90;;;;;;6189550;23;20453;-87
2021/08/20 02:39:40;;;;;;;115.53;46.95;;;14.60;99.90;;;;;;6189208;23;20012;-87
2021/08/20 02:42:06;;;;;;;107.03;45.97;;;14.50;99.90;;;;;;6189935;23;20012;-87
2021/08/20 02:44:32;;;;;;;102.45;44.20;;;14.60;99.90;;;;;;6139674;23;20352;-87
2021/08/20 02:46:58;;;;;;;114.13;46.97;;;14.50;99.90;;;;;;6189112;23;20012;-88
2021/08/20 02:49:25;;;;;;;104.22;46.13;;;14.50;99.90;;;;;;6189218;23;20013;-88
2021/08/20 02:51:50;;;;;;;110.45;46.33;;;14.60;99.90;;;;;;6213423;23;20334;-88
2021/08/20 02:54:16;;;;;;;113.35;46.55;;;14.60;99.90;;;;;;6163536;23;20008;-89
2021/08/20 02:56:42;;;;;;;122.50;48.55;;;14.60;99.90;;;;;;6138807;23;20336;-88
2021/08/20 02:59:08;;;;;;;113.90;47.38;;;14.60;99.90;;;;;;6188821;23;20016;-88
2021/08/20 03:01:34;;;;;;;108.70;46.67;;;14.50;99.90;;;;;;6139423;23;20020;-88
2021/08/20 03:04:00;;;;;;;99.85;45.38;;;14.50;99.90;;;;;;6164686;23;20014;-87
2021/08/20 03:06:25;;;;;;;98.43;44.22;;;14.50;99.90;;;;;;6163709;23;20008;-87
2021/08/20 03:08:52;;;;;;;108.93;46.85;;;14.50;99.90;;;;;;6240418;23;20016;-87
2021/08/20 03:11:18;;;;;;;97.53;44.92;;;14.50;99.90;;;;;;6139346;23;20035;-87
2021/08/20 03:13:44;;;;;;;98.25;46.40;;;14.50;99.90;;;;;;6130141;23;20090;-81
2021/08/20 03:16:09;;;;;;;90.65;44.30;;;14.40;99.90;;;;;;6159286;23;20456;-81
2021/08/20 03:18:35;;;;;;;93.57;44.55;;;14.40;99.90;;;;;;6160395;23;20028;-81
2021/08/20 03:21:01;;;;;;;93.28;43.92;;;14.40;99.90;;;;;;6134776;23;20017;-82
2021/08/20 03:23:27;;;;;;;95.28;44.70;;;14.40;99.90;;;;;;6155515;23;20016;-81
2021/08/20 03:25:53;;;;;;;89.63;43.05;;;14.30;99.90;;;;;;6154971;23;20024;-82
2021/08/20 03:28:19;;;;;;;91.25;43.90;;;14.30;99.90;;;;;;6132863;23;20009;-82
2021/08/20 03:30:45;;;;;;;96.60;45.28;;;14.20;99.90;;;;;;6131383;23;20013;-81
2021/08/20 03:33:10;;;;;;;111.30;45.60;;;14.20;99.90;;;;;;6155669;23;20009;-81
2021/08/20 03:35:36;;;;;;;99.95;45.40;;;14.10;99.90;;;;;;6154460;23;20353;-82
2021/08/20 03:38:02;;;;;;;102.07;45.13;;;14.10;99.90;;;;;;6131223;23;20045;-82
2021/08/20 03:40:28;;;;;;;102.55;45.83;;;14.10;99.90;;;;;;6114767;23;20060;-81
2021/08/20 03:42:55;;;;;;;102.82;44.63;;;14.10;99.90;;;;;;6155727;23;20092;-81
2021/08/20 03:45:22;;;;;;;101.03;44.63;;;14.00;99.90;;;;;;6130691;23;20032;-81
2021/08/20 03:47:48;;;;;;;102.13;45.70;;;14.00;99.90;;;;;;6180512;23;20487;-81
2021/08/20 03:50:15;;;;;;;104.25;45.78;;;14.00;99.90;;;;;;6154054;23;20480;-81
2021/08/20 03:52:41;;;;;;;100.63;46.63;;;13.90;99.90;;;;;;6179955;23;20512;-81
2021/08/20 03:55:08;;;;;;;105.22;47.85;;;13.90;99.90;;;;;;6130038;23;20378;-82
2021/08/20 03:57:33;;;;;;;105.78;47.17;;;13.90;99.90;;;;;;6153624;23;20014;-81
2021/08/20 03:59:59;;;;;;;117.45;48.55;;;13.90;99.90;;;;;;6129902;23;20020;-81
2021/08/20 04:02:25;;;;;;;110.10;48.78;;;13.90;99.90;;;;;;6083338;23;20013;-81
2021/08/20 04:04:51;;;;;;;120.38;52.17;;;13.90;99.90;;;;;;6132058;23;20020;-80
2021/08/20 04:07:20;;;;;;;134.85;52.65;;;13.90;99.90;;;;;;6156227;23;20067;-81
2021/08/20 04:09:47;;;;;;;132.48;52.47;;;13.90;99.90;;;;;;6156832;23;20353;-80
2021/08/20 04:12:15;;;;;;;124.97;52.08;;;13.90;99.90;;;;;;6157572;23;20016;-81
2021/08/20 04:14:41;;;;;;;131.77;52.72;;;13.90;99.90;;;;;;6209138;23;20062;-80
2021/08/20 04:17:07;;;;;;;120.72;39.75;;;13.90;99.90;;;;;;6160147;23;20091;-81
2021/08/20 04:19:33;;;;;;;160.05;57.25;;;13.90;99.90;;;;;;6161660;23;20016;-80
2021/08/20 04:21:58;;;;;;;132.52;53.08;;;13.90;99.90;;;;;;6160979;23;20473;-81
2021/08/20 04:24:24;;;;;;;142.35;55.65;;;13.90;99.90;;;;;;6160353;23;20032;-81
2021/08/20 04:26:50;;;;;;;130.98;51.58;;;13.90;99.90;;;;;;6184844;23;20017;-80
2021/08/20 04:29:18;;;;;;;123.93;52.05;;;13.90;99.90;;;;;;6159921;23;20048;-81
2021/08/20 04:31:44;;;;;;;120.85;50.47;;;13.90;99.90;;;;;;6184098;23;20421;-82
2021/08/20 04:34:09;;;;;;;126.07;52.83;;;13.90;99.90;;;;;;6158053;23;20040;-83
2021/08/20 04:36:36;;;;;;;127.35;54.03;;;14.00;99.90;;;;;;6185258;23;20079;-83
2021/08/20 04:39:03;;;;;;;110.97;49.72;;;14.00;99.90;;;;;;6159478;23;20087;-82
2021/08/20 04:41:28;;;;;;;120.55;51.08;;;14.00;99.90;;;;;;6184142;23;20047;-82
2021/08/20 04:43:57;;;;;;;121.53;51.13;;;14.00;99.90;;;;;;6161199;23;20013;-81
2021/08/20 04:46:24;;;;;;;120.32;52.72;;;14.00;99.90;;;;;;6212433;23;20013;-81
2021/08/20 04:48:50;;;;;;;120.82;51.05;;;14.00;99.90;;;;;;6187578;23;20364;-82
2021/08/20 04:51:18;;;;;;;109.13;50.22;;;14.00;99.90;;;;;;6183461;23;20515;-82
2021/08/20 04:53:44;;;;;;;113.95;50.17;;;14.00;99.90;;;;;;6158965;23;20013;-81
2021/08/20 04:56:10;;;;;;;110.10;49.60;;;14.00;99.90;;;;;;6159576;23;20095;-82
2021/08/20 04:58:36;;;;;;;114.18;50.80;;;14.10;99.90;;;;;;6212459;23;20012;-82
2021/08/20 05:01:02;;;;;;;96.60;47.92;;;14.10;99.90;;;;;;6183269;23;20013;-81
2021/08/20 05:03:33;;;;;;;108.65;49.00;;;14.10;99.90;;;;;;6186437;23;20051;-81
2021/08/20 05:05:59;;;;;;;108.25;49.15;;;14.10;99.90;;;;;;6210497;23;20009;-81
2021/08/20 05:08:24;;;;;;;98.80;47.47;;;14.10;99.90;;;;;;6183550;23;20020;-82
2021/08/20 05:10:51;;;;;;;99.35;47.40;;;14.10;99.90;;;;;;6160069;23;20027;-82
2021/08/20 05:13:17;;;;;;;92.22;45.88;;;14.10;99.90;;;;;;6160009;23;20081;-84
2021/08/20 05:15:43;;;;;;;103.53;48.10;;;14.10;99.90;;;;;;6134058;23;20444;-82
2021/08/20 05:18:09;;;;;;;95.70;45.85;;;14.10;99.90;;;;;;6135839;23;20024;-82
2021/08/20 05:20:35;;;;;;;104.18;46.75;;;14.10;99.90;;;;;;6161460;23;20151;-82
2021/08/20 05:23:03;;;;;;;92.32;45.03;;;14.10;99.90;;;;;;6162909;23;20184;-84
2021/08/20 05:25:35;;;;;;;96.07;46.47;;;14.10;99.90;;;;;;6183131;23;20019;-85
2021/08/20 05:28:03;;;;;;;76.97;42.67;;;14.10;99.90;;;;;;6184090;23;20020;-82
2021/08/20 05:30:29;;;;;;;90.80;44.92;;;14.20;99.90;;;;;;6159131;23;20008;-85
2021/08/20 05:32:55;;;;;;;85.82;43.63;;;14.20;99.90;;;;;;6210469;23;20012;-83
2021/08/20 05:35:21;;;;;;;84.50;44.60;;;14.30;99.90;;;;;;6181874;23;20017;-83
2021/08/20 05:37:48;;;;;;;95.38;46.25;;;14.20;99.90;;;;;;6184025;23;20373;-82
2021/08/20 05:40:16;;;;;;;98.00;46.65;;;14.30;99.90;;;;;;6133256;23;20044;-82
2021/08/20 05:42:42;;;;;;;83.80;43.47;;;14.30;99.90;;;;;;6157799;23;20012;-83
2021/08/20 05:45:09;;;;;;;90.85;45.60;;;14.30;99.90;;;;;;6182703;23;20036;-84
2021/08/20 05:47:35;;;;;;;87.35;45.03;;;14.40;99.90;;;;;;6158504;23;20024;-83
2021/08/20 05:50:01;;;;;;;96.90;46.92;;;14.30;99.90;;;;;;6158498;23;20098;-82
2021/08/20 05:52:27;;;;;;;90.72;44.65;;;14.30;99.90;;;;;;6184713;23;20020;-82
2021/08/20 05:54:53;;;;;;;93.72;46.92;;;14.40;99.90;;;;;;6134806;23;20013;-83
2021/08/20 05:57:19;;;;;;;94.72;45.40;;;14.40;99.90;;;;;;6141129;23;20027;-83
2021/08/20 05:59:45;;;;;;;94.95;46.35;;;14.40;99.90;;;;;;6181276;23;20313;-83
2021/08/20 06:02:10;;;;;;;88.68;44.85;;;14.40;99.90;;;;;;6182856;23;20013;-83
2021/08/20 06:04:37;;;;;;;86.75;44.00;;;14.50;99.90;;;;;;6160158;23;20012;-83
2021/08/20 06:07:06;;;;;;;95.00;45.10;;;14.50;99.90;;;;;;6183206;23;20052;-83
2021/08/20 06:09:32;;;;;;;91.90;45.30;;;14.50;99.90;;;;;;6182313;23;20019;-83
2021/08/20 06:11:58;;;;;;;94.95;45.47;;;14.50;99.90;;;;;;6158629;23;20019;-83
2021/08/20 06:14:25;;;;;;;89.65;45.42;;;14.60;99.90;;;;;;6134492;23;20364;-82
2021/08/20 06:16:57;;;;;;;92.97;45.00;;;14.60;99.90;;;;;;6211180;23;20013;-83
2021/08/20 06:19:24;;;;;;;90.50;44.20;;;14.60;99.90;;;;;;6164258;23;20013;-83
2021/08/20 06:21:50;;;;;;;91.25;44.90;;;14.60;99.90;;;;;;6162279;23;20092;-82
2021/08/20 06:24:16;;;;;;;89.93;44.58;;;14.70;99.90;;;;;;6187812;23;20453;-83
2021/08/20 06:26:45;;;;;;;83.47;43.50;;;14.70;99.90;;;;;;6161887;23;20067;-83
2021/08/20 06:29:16;;;;;;;76.53;43.10;;;14.70;99.90;;;;;;6163870;23;20017;-83
2021/08/20 06:31:42;;;;;;;86.38;43.78;;;14.70;99.90;;;;;;6165424;23;20496;-83
2021/08/20 06:34:09;;;;;;;94.68;44.45;;;14.70;99.90;;;;;;6159430;23;20070;-83
2021/08/20 06:36:35;;;;;;;89.05;42.95;;;14.70;99.90;;;;;;6186053;23;20505;-83
2021/08/20 06:39:00;;;;;;;85.38;44.45;;;14.80;99.90;;;;;;6161451;23;20043;-83
2021/08/20 06:41:26;;;;;;;93.47;45.03;;;14.80;99.90;;;;;;6187023;23;20009;-83
2021/08/20 06:43:53;;;;;;;88.50;43.53;;;14.80;99.90;;;;;;6137888;23;20012;-83
2021/08/20 06:46:19;;;;;;;87.35;44.65;;;14.80;99.90;;;;;;6137242;23;20103;-83
2021/08/20 06:48:45;;;;;;;94.38;45.15;;;14.80;99.90;;;;;;6136518;23;20012;-82
2021/08/20 06:51:15;;;;;;;97.45;46.50;;;14.80;99.90;;;;;;6136663;23;20017;-82
2021/08/20 06:53:41;;;;;;;106.32;48.38;;;14.80;99.90;;;;;;6186216;23;20024;-82
2021/08/20 06:56:07;;;;;;;94.97;46.50;;;14.90;99.90;;;;;;6186270;23;20013;-82
2021/08/20 06:58:33;;;;;;;92.03;45.42;;;14.90;99.90;;;;;;6183719;23;20091;-84
2021/08/20 07:00:59;;;;;;;98.78;49.38;;;15.00;99.90;;;;;;6186454;23;20028;-82
2021/08/20 07:03:25;;;;;;;100.43;48.60;;;15.00;99.90;;;;;;6217566;23;20017;-82
2021/08/20 07:05:51;;;;;;;92.05;48.13;;;15.10;99.90;;;;;;6166458;23;20012;-81
2021/08/20 07:08:17;;;;;;;100.95;47.40;;;15.20;99.90;;;;;;6136982;23;20066;-82
2021/08/20 07:10:44;;;;;;;99.10;48.65;;;15.30;99.90;;;;;;6137658;23;20026;-83
2021/08/20 07:13:11;;;;;;;89.00;47.28;;;15.40;99.90;;;;;;6159058;23;20083;-83
2021/08/20 07:15:40;;;;;;;91.43;46.42;;;15.50;99.90;;;;;;6167814;23;20020;-83
2021/08/20 07:18:06;;;;;;;89.82;45.55;;;15.50;99.90;;;;;;6135603;23;20094;-82
2021/08/20 07:20:32;;;;;;;87.25;44.53;;;15.60;99.90;;;;;;6137012;23;20205;-83
2021/08/20 07:22:57;;;;;;;87.22;45.50;;;15.60;99.90;;;;;;6137399;23;20032;-83
2021/08/20 07:25:23;;;;;;;87.60;44.78;;;15.70;99.90;;;;;;6134076;23;20457;-81
2021/08/20 07:27:49;;;;;;;83.53;42.55;;;15.70;99.90;;;;;;6184406;23;20012;-82
2021/08/20 07:30:15;;;;;;;64.15;38.53;;;15.70;99.90;;;;;;6162411;23;20012;-82
2021/08/20 07:32:41;;;;;;;80.82;41.92;;;15.80;99.90;;;;;;6162736;23;20009;-82
2021/08/20 07:35:07;;;;;;;83.60;43.63;;;15.80;99.90;;;;;;6136233;23;20021;-83
2021/08/20 07:37:33;;;;;;;70.93;39.97;;;15.80;99.90;;;;;;6170405;23;20020;-83
2021/08/20 07:40:00;;;;;;;75.78;40.70;;;15.90;99.90;;;;;;6185631;23;20112;-82
2021/08/20 07:42:26;;;;;;;70.47;41.17;;;15.90;99.90;;;;;;6159788;23;20079;-82
2021/08/20 07:44:53;;;;;;;66.05;39.17;;;16.00;99.90;;;;;;6210766;23;20039;-83
2021/08/20 07:47:19;;;;;;;74.40;41.22;;;16.10;99.90;;;;;;6158371;23;20017;-83
2021/08/20 07:49:45;;;;;;;74.28;40.80;;;16.10;99.90;;;;;;6181450;23;20015;-83
2021/08/20 07:52:11;;;;;;;70.70;40.45;;;16.20;99.90;;;;;;6131967;23;20024;-83
2021/08/20 07:54:36;;;;;;;72.20;41.50;;;16.30;99.90;;;;;;6131841;23;20008;-83
2021/08/20 07:57:03;;;;;;;69.50;39.90;;;16.30;99.90;;;;;;6133120;23;20023;-83
2021/08/20 07:59:28;;;;;;;70.40;40.47;;;16.40;99.90;;;;;;6159060;23;20485;-83
2021/08/20 08:01:54;;;;;;;69.78;39.03;;;16.50;99.90;;;;;;6133169;23;20095;-82
2021/08/20 08:04:20;;;;;;;68.45;40.08;;;16.60;99.90;;;;;;6134227;23;20465;-83
2021/08/20 08:06:46;;;;;;;72.78;40.17;;;16.60;99.90;;;;;;6185605;23;20023;-83
2021/08/20 08:09:12;;;;;;;65.50;39.92;;;16.60;99.90;;;;;;6187699;23;20151;-84
2021/08/20 08:11:38;;;;;;;59.72;38.03;;;16.70;99.90;;;;;;6165371;23;20442;-82
2021/08/20 08:14:07;;;;;;;64.53;40.35;;;16.70;99.90;;;;;;6181743;23;20037;-82
2021/08/20 08:16:38;;;;;;;59.20;37.35;;;16.80;99.90;;;;;;6181936;23;20013;-82
2021/08/20 08:19:05;;;;;;;64.63;38.95;;;16.80;99.90;;;;;;6209403;23;20016;-82
2021/08/20 08:21:46;;;;;;;67.80;39.03;;;16.80;99.90;;;;;;6142219;23;20092;-83
2021/08/20 08:24:12;;;;;;;64.35;39.38;;;16.80;99.90;;;;;;6188295;23;20463;-83
2021/08/20 08:26:38;;;;;;;60.45;39.08;;;16.90;99.90;;;;;;6159007;23;20091;-83
2021/08/20 08:29:04;;;;;;;58.78;38.28;;;16.90;99.90;;;;;;6134927;23;20059;-85
2021/08/20 08:31:30;;;;;;;56.42;37.75;;;16.90;99.90;;;;;;6134404;23;20083;-84
2021/08/20 08:33:56;;;;;;;61.45;38.97;;;16.90;99.90;;;;;;6182494;23;20086;-82
2021/08/20 08:36:22;;;;;;;66.50;40.10;;;16.90;99.90;;;;;;6131677;23;20364;-82
2021/08/20 08:38:48;;;;;;;64.70;40.03;;;16.90;99.90;;;;;;6131721;23;20065;-82
2021/08/20 08:41:16;;;;;;;71.68;43.70;;;16.90;99.90;;;;;;6156456;23;20119;-83
2021/08/20 08:43:42;;;;;;;61.50;39.75;;;16.90;99.90;;;;;;6161269;23;20016;-82
2021/08/20 08:46:10;;;;;;;64.18;38.35;;;16.90;99.90;;;;;;6165274;23;20518;-82
2021/08/20 08:48:40;;;;;;;62.95;38.92;;;16.90;99.90;;;;;;6136709;23;20020;-82
2021/08/20 08:51:08;;;;;;;65.82;39.80;;;16.80;99.90;;;;;;6186332;23;20062;-82
2021/08/20 08:53:34;;;;;;;69.05;40.92;;;16.80;99.90;;;;;;6161347;23;20136;-83
2021/08/20 08:56:00;;;;;;;69.90;42.17;;;16.90;99.90;;;;;;6157904;23;20464;-83
2021/08/20 08:58:26;;;;;;;72.32;42.38;;;16.90;99.90;;;;;;6135993;23;20513;-82
2021/08/20 09:00:52;;;;;;;68.80;41.28;;;17.00;99.90;;;;;;6213021;23;20623;-82
2021/08/20 09:03:26;;;;;;;66.45;41.03;;;17.00;99.90;;;;;;6133792;23;20091;-83
2021/08/20 09:05:52;;;;;;;73.82;42.13;;;17.10;99.90;;;;;;6189753;23;20016;-83
2021/08/20 09:08:21;;;;;;;73.57;42.55;;;17.10;99.90;;;;;;6186430;23;20022;-82
2021/08/20 09:10:55;;;;;;;68.65;42.88;;;17.20;99.90;;;;;;6185972;23;20044;-82
2021/08/20 09:13:25;;;;;;;70.27;41.07;;;17.20;99.90;;;;;;6184914;22;20131;-85
2021/08/20 09:16:09;;;;;;;72.13;42.38;;;17.20;99.90;;;;;;6220472;22;20126;-87
2021/08/20 09:18:36;;;;;;;68.20;42.10;;;17.30;99.90;;;;;;6197880;22;20015;-85
2021/08/20 09:21:04;;;;;;;67.82;40.67;;;17.30;99.90;;;;;;6199370;22;20169;-85
2021/08/20 09:23:30;;;;;;;62.42;39.88;;;17.40;99.90;;;;;;6165343;23;20042;-85
2021/08/20 09:25:57;;;;;;;70.30;41.45;;;17.40;99.90;;;;;;6144383;23;20069;-86
2021/08/20 09:28:28;;;;;;;67.18;43.22;;;17.40;99.90;;;;;;6166249;23;20020;-85
2021/08/20 09:30:54;;;;;;;65.18;39.97;;;17.50;99.90;;;;;;6249785;23;20012;-87
2021/08/20 09:33:48;;;;;;;63.78;39.80;;;17.50;99.90;;;;;;6222428;22;20008;-85
2021/08/20 09:36:17;;;;;;;59.95;38.08;;;17.60;99.90;;;;;;6190593;23;20015;-86
2021/08/20 09:38:55;;;;;;;61.20;38.42;;;17.60;99.90;;;;;;6222299;23;20008;-90
2021/08/20 09:41:36;;;;;;;58.08;37.13;;;17.60;99.90;;;;;;6229735;23;20090;-88
2021/08/20 09:44:06;;;;;;;59.78;38.50;;;17.60;99.90;;;;;;6219641;23;20091;-86
2021/08/20 09:47:03;;;;;;;58.78;37.67;;;17.60;99.90;;;;;;6193077;23;20099;-87
2021/08/20 09:49:28;;;;;;;62.95;37.47;;;17.60;99.90;;;;;;6192127;23;20170;-85
2021/08/20 09:51:58;;;;;;;61.63;37.10;;;17.70;99.90;;;;;;6194278;23;20099;-86
2021/08/20 09:54:40;;;;;;;60.13;36.58;;;17.70;99.90;;;;;;6192516;23;20019;-86
2021/08/20 09:57:06;;;;;;;65.57;36.30;;;17.80;99.90;;;;;;6217018;23;20336;-85
2021/08/20 09:59:35;;;;;;;61.55;37.15;;;17.80;99.90;;;;;;6143944;23;20019;-85
2021/08/20 10:02:01;;;;;;;52.55;36.50;;;17.80;99.90;;;;;;6196042;23;20019;-85
2021/08/20 10:04:30;;;;;;;54.65;36.35;;;17.90;99.90;;;;;;6192602;23;20395;-85
2021/08/20 10:06:58;;;;;;;55.35;35.45;;;18.00;99.90;;;;;;6189987;23;20444;-85
2021/08/20 10:09:25;;;;;;;57.55;35.20;;;18.10;99.90;;;;;;6217493;23;20016;-85
2021/08/20 10:11:53;;;;;;;58.15;34.47;;;18.10;99.90;;;;;;6161504;23;20517;-84
2021/08/20 10:14:28;;;;;;;55.20;35.25;;;18.20;99.90;;;;;;6182530;23;20297;-84
2021/08/20 10:16:55;;;;;;;50.00;33.30;;;18.30;99.90;;;;;;6196362;23;20360;-83
2021/08/20 10:19:21;;;;;;;49.20;32.30;;;18.40;99.90;;;;;;6183850;23;20032;-84
2021/08/20 10:21:48;;;;;;;52.05;32.92;;;18.50;99.90;;;;;;6179752;23;20009;-85
2021/08/20 10:24:15;;;;;;;49.83;32.30;;;18.60;99.90;;;;;;6157380;23;20070;-84
2021/08/20 10:26:52;;;;;;;45.08;30.70;;;18.70;99.90;;;;;;6157364;23;20020;-84
2021/08/20 10:29:23;;;;;;;48.70;32.03;;;18.80;99.90;;;;;;6180740;23;20038;-84
2021/08/20 10:31:50;;;;;;;45.20;29.95;;;18.90;99.90;;;;;;6180520;23;20004;-85
2021/08/20 10:34:36;;;;;;;43.60;29.88;;;18.90;99.90;;;;;;6155941;23;20083;-85
2021/08/20 10:37:16;;;;;;;44.58;29.65;;;18.90;99.90;;;;;;6180380;23;20017;-85
2021/08/20 10:39:44;;;;;;;39.65;29.65;;;19.00;99.90;;;;;;6156129;23;20107;-84
2021/08/20 10:42:12;;;;;;;46.53;28.25;;;19.00;99.90;;;;;;6179380;23;20015;-85
2021/08/20 10:44:44;;;;;;;44.47;29.42;;;19.10;99.90;;;;;;6156052;23;20023;-85
2021/08/20 10:47:32;;;;;;;40.75;28.75;;;19.10;99.90;;;;;;6208236;23;20337;-84
2021/08/20 10:50:16;;;;;;;40.25;28.35;;;19.10;99.90;;;;;;6217316;23;20008;-85
2021/08/20 10:52:47;;;;;;;40.47;28.40;;;19.20;99.90;;;;;;6189634;23;20019;-87
2021/08/20 10:55:14;;;;;;;35.08;25.90;;;19.20;99.90;;;;;;6180463;23;20008;-86
2021/08/20 10:57:42;;;;;;;35.42;26.70;;;19.20;99.90;;;;;;6179170;23;20012;-87
2021/08/20 11:00:22;;;;;;;41.63;27.02;;;19.20;99.90;;;;;;6179138;23;20013;-86
2021/08/20 11:02:52;;;;;;;38.33;27.10;;;19.20;99.90;;;;;;6191912;23;20017;-87
2021/08/20 11:05:19;;;;;;;42.63;27.00;;;19.20;99.90;;;;;;6180798;23;20063;-86
2021/08/20 11:07:46;;;;;;;34.42;25.77;;;19.20;99.90;;;;;;6180379;23;20017;-86
2021/08/20 11:10:12;;;;;;;38.47;25.98;;;19.20;99.90;;;;;;6131918;23;20094;-86
2021/08/20 11:12:42;;;;;;;38.20;26.45;;;19.20;99.90;;;;;;6181275;23;20095;-86
2021/08/20 11:15:20;;;;;;;39.50;27.40;;;19.20;99.90;;;;;;6202632;23;20451;-86
2021/08/20 11:17:53;;;;;;;45.10;27.90;;;19.20;99.90;;;;;;6209359;23;20094;-86
2021/08/20 11:20:22;;;;;;;37.67;27.47;;;19.20;99.90;;;;;;6186305;23;20016;-87
2021/08/20 11:23:10;;;;;;;35.25;26.73;;;19.20;99.90;;;;;;6160818;23;20247;-87
2021/08/20 11:25:39;;;;;;;43.67;27.17;;;19.20;99.90;;;;;;6236137;23;20334;-86
2021/08/20 11:28:18;;;;;;;39.70;28.73;;;19.20;99.90;;;;;;6184475;23;20016;-86
2021/08/20 11:31:00;;;;;;;38.30;27.73;;;19.20;99.90;;;;;;6220956;23;20039;-87
2021/08/20 11:33:28;;;;;;;34.77;27.17;;;19.20;99.90;;;;;;6188868;23;20095;-86
2021/08/20 11:35:58;;;;;;;37.05;27.88;;;19.30;99.90;;;;;;6161799;23;20020;-86
2021/08/20 11:38:41;;;;;;;40.25;30.73;;;19.40;99.90;;;;;;6184469;23;20464;-86
2021/08/20 11:41:11;;;;;;;33.63;27.02;;;19.50;99.90;;;;;;6192669;23;20016;-87
2021/08/20 11:43:44;;;;;;;36.08;27.50;;;19.60;99.90;;;;;;6209051;23;20017;-86
2021/08/20 11:46:11;;;;;;;37.53;27.67;;;19.70;99.90;;;;;;6183919;23;20251;-87
2021/08/20 11:49:00;;;;;;;28.83;22.75;;;19.80;99.90;;;;;;6208492;23;20016;-85
2021/08/20 11:51:31;;;;;;;28.17;20.67;;;20.00;99.90;;;;;;6180669;23;20008;-87
2021/08/20 11:54:33;;;;;;;27.52;22.40;;;20.00;99.90;;;;;;6192660;23;20095;-87
2021/08/20 11:56:59;;;;;;;28.33;21.75;;;20.20;99.90;;;;;;6211161;23;20030;-87
2021/08/20 11:59:25;;;;;;;28.42;22.63;;;20.30;99.90;;;;;;6187386;23;20004;-86
2021/08/20 12:01:58;;;;;;;28.20;21.63;;;20.30;99.90;;;;;;6134480;23;20370;-84
2021/08/20 12:04:24;;;;;;;30.33;22.17;;;20.30;99.90;;;;;;6185329;23;20099;-86
2021/08/20 12:06:51;;;;;;;24.92;20.05;;;20.40;99.90;;;;;;6160856;23;20090;-86
2021/08/20 12:09:18;;;;;;;28.65;20.67;;;20.40;99.90;;;;;;6209452;23;20308;-86
2021/08/20 12:11:56;;;;;;;27.30;19.95;;;20.30;99.90;;;;;;6211833;23;20209;-86
2021/08/20 12:14:24;;;;;;;27.50;20.88;;;20.30;99.90;;;;;;6153592;23;20020;-85
2021/08/20 12:16:52;;;;;;;26.25;19.88;;;20.20;99.90;;;;;;6152350;23;20387;-86
2021/08/20 12:19:27;;;;;;;30.50;20.95;;;20.20;99.90;;;;;;6154216;23;20104;-85
2021/08/20 12:22:05;;;;;;;26.83;19.55;;;20.10;99.90;;;;;;6208316;23;20063;-85
2021/08/20 12:24:42;;;;;;;32.33;21.25;;;20.10;99.90;;;;;;6179224;23;20036;-87
2021/08/20 12:27:21;;;;;;;34.22;21.77;;;20.10;99.90;;;;;;6205334;23;20017;-87
2021/08/20 12:29:59;;;;;;;29.17;21.33;;;20.10;99.90;;;;;;6155652;23;20009;-86